Emily Morgan — MEKF5 — position and weather

sailwx.info

Track history (hours):
 
Tides and Currents Weather Stations Pressure Air Temp Water Temp Dewpoint Dewpoint Depression Visibility Wind Speed Wind Dir Waves Ship Positions

Emily Morgan

Last reported at 2017-Nov-19 13:59 UTC. Time now 2017-Nov-21 19:21 UTC.
Position N 28°02' W 015°21'.

Length 17 m.

Type: Sailing vessel. MMSI: 235016963.

Date/timePositionNaut miles runAvg speedWind from/ knotsBaromVisibWave heightAir tempDewpointWater temp
2017-Nov-19 13:59N 28°02' W 015°21'4 7.6
2017-Nov-19 13:29N 28°06' W 015°22'2 3.8
2017-Nov-19 12:59N 28°07' W 015°24'0 0.8
2017-Nov-19 12:28N 28°07' W 015°23'1 1.8
2017-Nov-19 11:58N 28°07' W 015°24'1 0.3
2017-Nov-19 07:39N 28°08' W 015°25'0 0.0
2017-Nov-19 07:27N 28°08' W 015°25'0 0.0
2017-Nov-19 02:45N 28°08' W 015°25'0 0.0
2017-Nov-18 15:59N 28°07' W 015°25'2 3.2
2017-Nov-18 15:27N 28°07' W 015°23'2 3.7
2017-Nov-18 14:58N 28°07' W 015°25'0 0.0
2017-Nov-18 07:35N 28°08' W 015°25'0 0.0
2017-Nov-18 07:23N 28°08' W 015°25'0 0.0
2017-Nov-18 06:53N 28°08' W 015°25'0 0.0
2017-Nov-17 17:08N 28°08' W 015°25'0 0.0
2017-Nov-17 16:50N 28°08' W 015°25'0 0.0
2017-Nov-17 12:49N 28°08' W 015°25'0 0.0
2017-Nov-17 08:37N 28°08' W 015°25'0 0.0
2017-Nov-17 08:13N 28°08' W 015°25'0 0.0
2017-Nov-17 07:58N 28°08' W 015°25'0 0.0
2017-Nov-17 07:13N 28°08' W 015°25'0 0.0
2017-Nov-17 06:43N 28°08' W 015°25'0 0.0
2017-Nov-17 06:25N 28°08' W 015°25'0 0.0
2017-Nov-17 05:55N 28°08' W 015°25'0 0.0
2017-Nov-17 05:25N 28°08' W 015°25'0 0.0
2017-Nov-17 04:58N 28°08' W 015°25'0 0.0
2017-Nov-17 04:01N 28°08' W 015°25'0 0.0
2017-Nov-17 03:43N 28°08' W 015°25'0 0.0
2017-Nov-17 03:19N 28°08' W 015°25'0 0.0
2017-Nov-17 02:49N 28°08' W 015°25'0 0.0
2017-Nov-17 01:34N 28°08' W 015°25'0 0.0
2017-Nov-17 01:16N 28°08' W 015°25'0 0.0
2017-Nov-17 00:37N 28°08' W 015°25'0 0.0
2017-Nov-16 23:46N 28°08' W 015°25'0 0.0
2017-Nov-16 23:19N 28°08' W 015°25'  
2017-Nov-12 08:10N 28°08' W 015°25'0 0.0
2017-Nov-12 05:28N 28°08' W 015°25'0 0.0
2017-Nov-11 22:19N 28°08' W 015°25'0 0.0
2017-Nov-11 19:52N 28°08' W 015°25'0 0.0
2017-Nov-11 19:28N 28°08' W 015°25'0 0.0
2017-Nov-11 18:58N 28°08' W 015°25'0 0.0
2017-Nov-11 17:13N 28°08' W 015°25'0 0.0
2017-Nov-11 13:04N 28°08' W 015°25'0 0.0
2017-Nov-10 06:49N 28°08' W 015°25'0 0.0
2017-Nov-10 06:22N 28°08' W 015°25'0 0.0
2017-Nov-10 05:52N 28°08' W 015°25'0 0.0
2017-Nov-10 05:22N 28°08' W 015°25'0 0.0
2017-Nov-10 03:52N 28°08' W 015°25'0 0.0
2017-Nov-10 00:25N 28°08' W 015°25'0 0.0
2017-Nov-09 22:16N 28°08' W 015°25'0 0.0
2017-Nov-09 20:16N 28°08' W 015°25'0 0.0
2017-Nov-09 19:46N 28°08' W 015°25'0 0.0
2017-Nov-09 19:28N 28°08' W 015°25'0 0.0
2017-Nov-09 18:58N 28°08' W 015°25'0 0.0
2017-Nov-09 17:46N 28°08' W 015°25'0 0.0
2017-Nov-09 16:22N 28°08' W 015°25'0 0.0
2017-Nov-09 15:22N 28°08' W 015°25'  
Track history (hours):
 
Tides and Currents Weather Stations Pressure Air Temp Water Temp Dewpoint Dewpoint Depression Visibility Wind Speed Wind Dir Waves Ship Positions

Emily Morgan

Last reported at 2017-Nov-19 13:59 UTC. Time now 2017-Nov-21 19:21 UTC.
Position N 28°02' W 015°21'.

Length 17 m.

Type: Sailing vessel. MMSI: 235016963.

Date/timePositionNaut miles runAvg speedWind from/ knotsBaromVisibWave heightAir tempDewpointWater temp
2017-Nov-19 13:59N 28°02' W 015°21'4 7.6
2017-Nov-19 13:29N 28°06' W 015°22'2 3.8
2017-Nov-19 12:59N 28°07' W 015°24'0 0.8
2017-Nov-19 12:28N 28°07' W 015°23'1 1.8
2017-Nov-19 11:58N 28°07' W 015°24'1 0.3
2017-Nov-19 07:39N 28°08' W 015°25'0 0.0
2017-Nov-19 07:27N 28°08' W 015°25'0 0.0
2017-Nov-19 02:45N 28°08' W 015°25'0 0.0
2017-Nov-18 15:59N 28°07' W 015°25'2 3.2
2017-Nov-18 15:27N 28°07' W 015°23'2 3.7
2017-Nov-18 14:58N 28°07' W 015°25'0 0.0
2017-Nov-18 07:35N 28°08' W 015°25'0 0.0
2017-Nov-18 07:23N 28°08' W 015°25'0 0.0
2017-Nov-18 06:53N 28°08' W 015°25'0 0.0
2017-Nov-17 17:08N 28°08' W 015°25'0 0.0
2017-Nov-17 16:50N 28°08' W 015°25'0 0.0
2017-Nov-17 12:49N 28°08' W 015°25'0 0.0
2017-Nov-17 08:37N 28°08' W 015°25'0 0.0
2017-Nov-17 08:13N 28°08' W 015°25'0 0.0
2017-Nov-17 07:58N 28°08' W 015°25'0 0.0
2017-Nov-17 07:13N 28°08' W 015°25'0 0.0
2017-Nov-17 06:43N 28°08' W 015°25'0 0.0
2017-Nov-17 06:25N 28°08' W 015°25'0 0.0
2017-Nov-17 05:55N 28°08' W 015°25'0 0.0
2017-Nov-17 05:25N 28°08' W 015°25'0 0.0
2017-Nov-17 04:58N 28°08' W 015°25'0 0.0
2017-Nov-17 04:01N 28°08' W 015°25'0 0.0
2017-Nov-17 03:43N 28°08' W 015°25'0 0.0
2017-Nov-17 03:19N 28°08' W 015°25'0 0.0
2017-Nov-17 02:49N 28°08' W 015°25'0 0.0
2017-Nov-17 01:34N 28°08' W 015°25'0 0.0
2017-Nov-17 01:16N 28°08' W 015°25'0 0.0
2017-Nov-17 00:37N 28°08' W 015°25'0 0.0
2017-Nov-16 23:46N 28°08' W 015°25'0 0.0
2017-Nov-16 23:19N 28°08' W 015°25'  
2017-Nov-12 08:10N 28°08' W 015°25'0 0.0
2017-Nov-12 05:28N 28°08' W 015°25'0 0.0
2017-Nov-11 22:19N 28°08' W 015°25'0 0.0
2017-Nov-11 19:52N 28°08' W 015°25'0 0.0
2017-Nov-11 19:28N 28°08' W 015°25'0 0.0
2017-Nov-11 18:58N 28°08' W 015°25'0 0.0
2017-Nov-11 17:13N 28°08' W 015°25'0 0.0
2017-Nov-11 13:04N 28°08' W 015°25'0 0.0
2017-Nov-10 06:49N 28°08' W 015°25'0 0.0
2017-Nov-10 06:22N 28°08' W 015°25'0 0.0
2017-Nov-10 05:52N 28°08' W 015°25'0 0.0
2017-Nov-10 05:22N 28°08' W 015°25'0 0.0
2017-Nov-10 03:52N 28°08' W 015°25'0 0.0
2017-Nov-10 00:25N 28°08' W 015°25'0 0.0
2017-Nov-09 22:16N 28°08' W 015°25'0 0.0
2017-Nov-09 20:16N 28°08' W 015°25'0 0.0
2017-Nov-09 19:46N 28°08' W 015°25'0 0.0
2017-Nov-09 19:28N 28°08' W 015°25'0 0.0
2017-Nov-09 18:58N 28°08' W 015°25'0 0.0
2017-Nov-09 17:46N 28°08' W 015°25'0 0.0
2017-Nov-09 16:22N 28°08' W 015°25'0 0.0
2017-Nov-09 15:22N 28°08' W 015°25'  

Dump ship's entire track history